Time;durP1;ratioP1;P1;durP2;ratioP2;P2;SDS_P1;SDS_P2;PMS_P1;PMS_P2;Temp;Humidity;BMP_temperature;BMP_pressure;BME280_temperature;BME280_humidity;BME280_pressure;Samples;Min_cycle;Max_cycle;Signal;HPM_P1;HPM_P2
2022/01/29 00:03:44;;;;;;;29.23;10.43;;;;;3.90;97698.00;;;;8293680;28;20229;-76
2022/01/29 00:07:47;;;;;;;27.17;10.87;;;;;3.90;97698.00;;;;8300602;28;20240;-76
2022/01/29 00:11:50;;;;;;;28.73;11.33;;;;;3.90;97688.00;;;;8295995;28;20233;-76
2022/01/29 00:15:53;;;;;;;24.43;11.77;;;;;3.90;97686.00;;;;8285875;28;20974;-75
2022/01/29 00:19:58;;;;;;;24.83;11.37;;;;;3.90;97692.00;;;;8297034;28;20233;-75
2022/01/29 00:24:01;;;;;;;29.60;11.30;;;;;3.90;97688.00;;;;8289364;28;20279;-75
2022/01/29 00:28:05;;;;;;;25.47;11.83;;;;;4.00;97682.00;;;;8293545;28;20310;-75
2022/01/29 00:32:09;;;;;;;21.77;11.60;;;;;4.00;97678.00;;;;8297371;28;20241;-75
2022/01/29 00:36:13;;;;;;;24.27;11.57;;;;;4.00;97666.00;;;;8296608;28;20281;-75
2022/01/29 00:40:16;;;;;;;20.73;10.93;;;;;4.10;97660.00;;;;8294542;28;20267;-75
2022/01/29 00:44:19;;;;;;;23.57;11.60;;;;;4.10;97661.00;;;;8288338;28;20838;-76
2022/01/29 00:48:22;;;;;;;23.53;11.60;;;;;4.10;97648.00;;;;8286418;28;20230;-76
2022/01/29 00:52:27;;;;;;;26.07;11.30;;;;;4.10;97637.00;;;;8298948;28;20954;-76
2022/01/29 00:56:30;;;;;;;23.70;11.13;;;;;4.00;97623.00;;;;8288074;28;20227;-76
2022/01/29 01:00:33;;;;;;;22.37;10.07;;;;;4.00;97616.00;;;;8285339;28;20233;-76
2022/01/29 01:04:38;;;;;;;24.40;10.77;;;;;3.90;97603.00;;;;8293374;28;20236;-75
2022/01/29 01:08:43;;;;;;;24.43;10.97;;;;;3.90;97604.00;;;;8280142;28;20227;-75
2022/01/29 01:12:46;;;;;;;21.80;10.43;;;;;3.90;97603.00;;;;8291635;28;20284;-75
2022/01/29 01:16:49;;;;;;;26.00;10.57;;;;;3.90;97593.00;;;;8293165;28;20228;-74
2022/01/29 01:20:53;;;;;;;25.23;10.63;;;;;3.80;97588.00;;;;8295122;28;20347;-76
2022/01/29 01:24:57;;;;;;;27.97;10.53;;;;;3.80;97590.00;;;;8300860;28;20263;-75
2022/01/29 01:29:00;;;;;;;23.67;9.87;;;;;3.80;97589.00;;;;8288868;28;20271;-74
2022/01/29 01:33:04;;;;;;;24.20;10.43;;;;;3.80;97582.00;;;;8284541;28;20683;-76
2022/01/29 01:37:11;;;;;;;24.33;9.80;;;;;3.80;97573.00;;;;8287965;28;20302;-76
2022/01/29 01:41:20;;;;;;;24.73;10.33;;;;;3.70;97564.00;;;;8291484;28;20607;-76
2022/01/29 01:45:23;;;;;;;25.17;10.70;;;;;3.70;97569.00;;;;8291067;28;20249;-76
2022/01/29 01:49:26;;;;;;;23.40;10.80;;;;;3.70;97569.00;;;;8285070;28;20280;-77
2022/01/29 01:53:29;;;;;;;21.03;9.80;;;;;3.70;97556.00;;;;8289846;28;20658;-77
2022/01/29 01:57:34;;;;;;;21.10;10.13;;;;;3.70;97551.00;;;;8283697;28;20228;-77
2022/01/29 02:01:37;;;;;;;26.37;10.13;;;;;3.70;97554.00;;;;8276796;28;20296;-75
2022/01/29 02:05:40;;;;;;;22.00;10.37;;;;;3.70;97553.00;;;;8290823;28;20565;-75
2022/01/29 02:09:43;;;;;;;20.40;8.90;;;;;3.70;97549.00;;;;8290560;28;20227;-74
2022/01/29 02:13:47;;;;;;;21.53;10.40;;;;;3.70;97551.00;;;;8286922;28;20286;-75
2022/01/29 02:17:51;;;;;;;25.33;11.30;;;;;3.70;97557.00;;;;8287428;28;20741;-75
2022/01/29 02:21:55;;;;;;;20.37;10.67;;;;;3.60;97556.00;;;;8290196;28;20835;-75
2022/01/29 02:25:58;;;;;;;21.63;10.13;;;;;3.60;97558.00;;;;8291024;28;20240;-75
2022/01/29 02:30:01;;;;;;;20.17;10.80;;;;;3.70;97556.00;;;;8301361;28;20230;-75
2022/01/29 02:34:05;;;;;;;23.57;10.73;;;;;3.70;97546.00;;;;8292595;28;20247;-75
2022/01/29 02:38:10;;;;;;;22.33;10.13;;;;;3.60;97541.00;;;;8299883;28;20238;-75
2022/01/29 02:42:12;;;;;;;21.40;10.20;;;;;3.60;97531.00;;;;8287284;28;20683;-76
2022/01/29 02:46:28;;;;;;;23.93;10.60;;;;;3.60;97521.00;;;;8274899;28;20233;-76
2022/01/29 02:50:31;;;;;;;21.03;10.23;;;;;3.50;97518.00;;;;8281481;28;20317;-76
2022/01/29 02:54:40;;;;;;;23.77;10.80;;;;;3.50;97512.00;;;;8286093;28;20309;-75
2022/01/29 02:58:46;;;;;;;21.57;10.03;;;;;3.40;97493.00;;;;8290174;28;20243;-75
2022/01/29 03:02:49;;;;;;;23.33;10.27;;;;;3.40;97483.00;;;;8328737;22;20227;-75
2022/01/29 03:06:52;;;;;;;24.83;10.43;;;;;3.40;97485.00;;;;8295241;28;20230;-75
2022/01/29 03:10:57;;;;;;;23.50;9.70;;;;;3.30;97478.00;;;;8304275;28;20234;-75
2022/01/29 03:15:00;;;;;;;24.90;9.97;;;;;3.30;97470.00;;;;8308138;28;20271;-75
2022/01/29 03:19:03;;;;;;;23.93;10.73;;;;;3.30;97463.00;;;;8306750;28;20228;-74
2022/01/29 03:23:12;;;;;;;24.20;10.37;;;;;3.30;97459.00;;;;8304915;28;20225;-74
2022/01/29 03:27:16;;;;;;;20.73;9.17;;;;;3.30;97456.00;;;;8301345;28;20262;-75
2022/01/29 03:31:20;;;;;;;27.30;11.77;;;;;3.30;97451.00;;;;8305402;28;20559;-75
2022/01/29 03:35:23;;;;;;;17.97;9.43;;;;;3.40;97444.00;;;;8300462;28;20637;-74
2022/01/29 03:39:29;;;;;;;24.87;10.33;;;;;3.40;97444.00;;;;8301216;28;20277;-73
2022/01/29 03:43:41;;;;;;;27.77;12.43;;;;;3.40;97428.00;;;;8307246;28;20277;-74
2022/01/29 03:47:44;;;;;;;24.70;9.90;;;;;3.40;97427.00;;;;8310111;28;20266;-75
2022/01/29 03:51:47;;;;;;;25.60;9.30;;;;;3.40;97405.00;;;;8301882;28;20232;-75
2022/01/29 03:55:50;;;;;;;19.73;9.57;;;;;3.40;97419.00;;;;8307081;28;20232;-75
2022/01/29 03:59:54;;;;;;;20.50;10.27;;;;;3.50;97421.00;;;;8302532;28;20577;-75
2022/01/29 04:04:00;;;;;;;26.10;9.50;;;;;3.50;97410.00;;;;8298942;28;20317;-75
2022/01/29 04:08:12;;;;;;;25.23;9.47;;;;;3.50;97412.00;;;;8296780;28;20815;-75
2022/01/29 04:12:15;;;;;;;24.87;8.73;;;;;3.40;97406.00;;;;8301524;28;20230;-75
2022/01/29 04:16:20;;;;;;;20.83;8.47;;;;;3.40;97403.00;;;;8306242;28;20235;-74
2022/01/29 04:20:23;;;;;;;18.63;8.97;;;;;3.40;97392.00;;;;8306487;28;20252;-74
2022/01/29 04:24:26;;;;;;;19.83;9.10;;;;;3.40;97385.00;;;;8301258;28;20232;-75
2022/01/29 04:28:32;;;;;;;17.03;8.60;;;;;3.40;97373.00;;;;8310017;28;20277;-75
2022/01/29 04:32:57;;;;;;;19.70;8.50;;;;;3.30;97364.00;;;;8299752;28;20684;-74
2022/01/29 04:37:00;;;;;;;20.63;9.27;;;;;3.20;97369.00;;;;8312701;28;20756;-75
2022/01/29 04:41:05;;;;;;;19.80;8.40;;;;;3.20;97366.00;;;;8307417;28;20232;-74
2022/01/29 04:45:08;;;;;;;17.47;8.57;;;;;3.20;97358.00;;;;8309962;28;20230;-74
2022/01/29 04:49:13;;;;;;;18.17;9.37;;;;;3.20;97360.00;;;;8300540;28;21076;-75
2022/01/29 04:53:16;;;;;;;16.33;8.90;;;;;3.20;97366.00;;;;8306348;28;20734;-75
2022/01/29 04:57:18;;;;;;;15.13;8.40;;;;;3.10;97352.00;;;;8311054;28;20712;-74
2022/01/29 05:01:21;;;;;;;17.93;7.67;;;;;3.10;97350.00;;;;8303588;28;20223;-74
2022/01/29 05:05:26;;;;;;;17.30;8.60;;;;;3.10;97343.00;;;;8305874;28;20247;-75
2022/01/29 05:09:29;;;;;;;17.40;8.20;;;;;3.20;97337.00;;;;8301748;28;20227;-74
2022/01/29 05:13:36;;;;;;;16.60;8.17;;;;;3.10;97333.00;;;;8295414;28;20278;-74
2022/01/29 05:30:43;;;;;;;17.50;8.33;;;;;3.20;97329.00;;;;8304811;28;20289;-74
2022/01/29 05:34:48;;;;;;;16.80;7.83;;;;;3.20;97331.00;;;;8307620;28;20243;-74
2022/01/29 05:39:13;;;;;;;15.37;7.43;;;;;3.20;97339.00;;;;8303042;28;20229;-74
2022/01/29 05:43:16;;;;;;;16.63;7.83;;;;;3.20;97329.00;;;;8302757;28;20578;-75
2022/01/29 05:47:19;;;;;;;14.03;7.40;;;;;3.20;97317.00;;;;8300665;28;20231;-73
2022/01/29 05:51:22;;;;;;;19.47;9.10;;;;;3.20;97315.00;;;;8310553;28;20285;-74
2022/01/29 05:55:26;;;;;;;17.97;7.07;;;;;3.20;97306.00;;;;8300435;28;20218;-74
2022/01/29 05:59:31;;;;;;;16.20;8.13;;;;;3.20;97301.00;;;;8302164;28;20228;-74
2022/01/29 06:03:34;;;;;;;10.00;4.90;;;;;3.20;97305.00;;;;8305166;28;20288;-73
2022/01/29 06:07:37;;;;;;;14.83;7.70;;;;;3.20;97295.00;;;;8295300;28;20230;-74
2022/01/29 06:11:41;;;;;;;16.53;7.67;;;;;3.30;97307.00;;;;8300288;28;20234;-73
2022/01/29 06:15:46;;;;;;;18.13;7.50;;;;;3.30;97296.00;;;;8298801;28;20243;-74
2022/01/29 06:19:49;;;;;;;11.03;6.33;;;;;3.40;97281.00;;;;8310432;28;20241;-75
2022/01/29 06:23:57;;;;;;;16.10;6.43;;;;;3.50;97272.00;;;;8299721;28;20328;-74
2022/01/29 06:28:02;;;;;;;12.50;6.27;;;;;3.50;97264.00;;;;8300555;28;20229;-75
2022/01/29 06:32:06;;;;;;;11.80;5.87;;;;;3.60;97279.00;;;;8292797;28;20257;-72
2022/01/29 06:36:10;;;;;;;11.93;5.40;;;;;3.70;97272.00;;;;8305689;28;20239;-72
2022/01/29 06:40:13;;;;;;;14.77;5.90;;;;;3.70;97280.00;;;;8293003;28;20626;-75
2022/01/29 06:44:18;;;;;;;10.37;5.00;;;;;3.80;97265.00;;;;8298480;28;20275;-73
2022/01/29 06:48:21;;;;;;;11.13;5.97;;;;;3.80;97270.00;;;;8300450;28;20234;-74
2022/01/29 06:52:24;;;;;;;13.20;5.87;;;;;3.80;97266.00;;;;8302269;28;20280;-74
2022/01/29 06:56:27;;;;;;;8.73;5.93;;;;;3.80;97276.00;;;;8299268;28;20225;-73
2022/01/29 07:00:32;;;;;;;9.63;4.93;;;;;3.90;97274.00;;;;8290811;28;20563;-74
2022/01/29 07:04:35;;;;;;;15.47;5.53;;;;;3.90;97283.00;;;;8292887;28;20291;-74
2022/01/29 07:08:39;;;;;;;15.00;5.90;;;;;3.90;97281.00;;;;8302759;28;20448;-71
2022/01/29 07:12:42;;;;;;;10.93;6.60;;;;;3.90;97255.00;;;;8296619;28;20231;-73
2022/01/29 07:16:47;;;;;;;12.37;6.07;;;;;3.90;97278.00;;;;8303843;28;20262;-72
2022/01/29 07:20:50;;;;;;;12.33;6.53;;;;;4.00;97271.00;;;;8301381;28;20864;-73
2022/01/29 07:24:53;;;;;;;10.47;6.17;;;;;4.00;97277.00;;;;8300615;28;20234;-73
2022/01/29 07:28:56;;;;;;;13.77;5.50;;;;;4.00;97276.00;;;;8302033;28;20277;-73
2022/01/29 07:33:00;;;;;;;15.00;6.50;;;;;4.00;97272.00;;;;8286606;28;20283;-73
2022/01/29 07:37:04;;;;;;;14.67;6.07;;;;;4.00;97267.00;;;;8295759;28;20274;-73
2022/01/29 07:41:07;;;;;;;14.13;6.33;;;;;4.00;97279.00;;;;8300511;28;20236;-72
2022/01/29 07:45:10;;;;;;;11.33;7.07;;;;;4.10;97267.00;;;;8304567;28;20281;-74
2022/01/29 07:49:15;;;;;;;10.83;5.63;;;;;4.10;97262.00;;;;8309635;28;20225;-72
2022/01/29 07:53:19;;;;;;;15.50;8.20;;;;;4.10;97268.00;;;;8305629;28;22900;-72
2022/01/29 07:57:22;;;;;;;15.17;6.87;;;;;4.10;97265.00;;;;8310984;28;20231;-73
2022/01/29 08:01:25;;;;;;;12.73;6.60;;;;;4.10;97265.00;;;;8305119;28;20250;-73
2022/01/29 08:05:30;;;;;;;14.17;6.87;;;;;4.10;97270.00;;;;8308818;28;20317;-72
2022/01/29 08:09:33;;;;;;;15.57;7.60;;;;;4.20;97261.00;;;;8302621;28;20235;-72
2022/01/29 08:13:36;;;;;;;16.90;7.20;;;;;4.30;97263.00;;;;8303431;28;20250;-73
2022/01/29 08:17:39;;;;;;;14.00;7.67;;;;;4.30;97262.00;;;;8300628;28;20319;-73
2022/01/29 08:21:43;;;;;;;14.73;7.93;;;;;4.40;97245.00;;;;8309970;28;20228;-75
2022/01/29 08:25:46;;;;;;;17.03;8.23;;;;;4.40;97233.00;;;;8307819;28;20237;-73
2022/01/29 08:29:49;;;;;;;11.53;6.43;;;;;4.40;97241.00;;;;8297492;28;20571;-74
2022/01/29 08:33:52;;;;;;;17.93;7.03;;;;;4.40;97232.00;;;;8298385;28;20226;-74
2022/01/29 08:37:57;;;;;;;18.00;7.50;;;;;4.50;97228.00;;;;8301510;28;20227;-73
2022/01/29 08:42:00;;;;;;;15.60;7.77;;;;;4.50;97224.00;;;;8300194;28;20744;-74
2022/01/29 08:46:03;;;;;;;13.30;6.73;;;;;4.60;97220.00;;;;8301366;28;20818;-76
2022/01/29 08:50:08;;;;;;;13.70;6.37;;;;;4.60;97212.00;;;;8292462;28;20244;-75
2022/01/29 08:54:12;;;;;;;12.67;6.67;;;;;4.60;97208.00;;;;8302564;28;20237;-71
2022/01/29 08:58:15;;;;;;;15.40;6.67;;;;;4.60;97228.00;;;;8298406;28;20720;-74
2022/01/29 09:02:18;;;;;;;13.77;5.90;;;;;4.60;97225.00;;;;8303989;28;20283;-75
2022/01/29 09:06:21;;;;;;;11.33;5.90;;;;;4.60;97219.00;;;;8314314;28;20614;-76
2022/01/29 09:10:27;;;;;;;9.63;6.03;;;;;4.70;97230.00;;;;8305769;28;20252;-73
2022/01/29 09:14:30;;;;;;;10.77;5.57;;;;;4.70;97217.00;;;;8297302;28;20228;-74
2022/01/29 09:18:33;;;;;;;8.53;5.47;;;;;4.70;97207.00;;;;8311617;28;20226;-74
2022/01/29 09:22:36;;;;;;;7.23;5.00;;;;;4.80;97182.00;;;;8306295;28;20233;-73
2022/01/29 09:26:40;;;;;;;10.93;5.43;;;;;4.80;97187.00;;;;8297333;28;20227;-73
2022/01/29 09:30:45;;;;;;;9.83;5.03;;;;;4.80;97179.00;;;;8306340;28;20251;-73
2022/01/29 09:34:48;;;;;;;9.63;5.83;;;;;4.80;97192.00;;;;8303163;28;20334;-72
2022/01/29 09:38:51;;;;;;;8.40;4.67;;;;;4.80;97195.00;;;;8300314;28;20225;-72
2022/01/29 09:42:57;;;;;;;11.77;5.40;;;;;4.90;97190.00;;;;8296966;28;20236;-71
2022/01/29 09:47:01;;;;;;;11.10;5.60;;;;;4.90;97196.00;;;;8299804;28;20303;-76
2022/01/29 09:51:12;;;;;;;9.43;5.40;;;;;4.90;97206.00;;;;8300271;28;20260;-71
2022/01/29 09:55:15;;;;;;;9.63;5.43;;;;;5.00;97203.00;;;;8299280;28;20225;-73
2022/01/29 09:59:19;;;;;;;13.27;6.10;;;;;5.00;97203.00;;;;8301468;28;20230;-73
2022/01/29 10:03:22;;;;;;;6.60;4.50;;;;;5.10;97197.00;;;;8308576;28;20236;-74
2022/01/29 10:07:28;;;;;;;12.77;6.13;;;;;5.10;97193.00;;;;8297566;28;20658;-74
2022/01/29 10:11:31;;;;;;;13.43;5.90;;;;;5.10;97189.00;;;;8295195;28;20236;-74
2022/01/29 10:15:36;;;;;;;11.07;5.77;;;;;5.10;97182.00;;;;8296639;28;20237;-75
2022/01/29 10:19:39;;;;;;;11.17;6.67;;;;;5.10;97182.00;;;;8303613;28;20233;-74
2022/01/29 10:23:44;;;;;;;13.60;7.27;;;;;5.10;97177.00;;;;8305056;28;20267;-73
2022/01/29 10:28:11;;;;;;;13.33;6.73;;;;;5.10;97175.00;;;;8301266;28;20229;-73
2022/01/29 10:32:24;;;;;;;12.50;6.93;;;;;5.10;97161.00;;;;8306962;28;20838;-73
2022/01/29 10:36:27;;;;;;;13.83;7.13;;;;;5.10;97138.00;;;;8304813;28;20645;-72
2022/01/29 10:40:34;;;;;;;14.40;7.17;;;;;5.20;97153.00;;;;8295913;28;20233;-74
2022/01/29 10:44:44;;;;;;;12.13;6.63;;;;;5.30;97146.00;;;;8300958;28;20221;-73
2022/01/29 10:48:53;;;;;;;15.40;7.70;;;;;5.40;97144.00;;;;8296953;28;20244;-72
2022/01/29 10:52:57;;;;;;;17.57;8.47;;;;;5.40;97124.00;;;;8296238;28;20677;-73
2022/01/29 10:57:02;;;;;;;16.33;8.07;;;;;5.40;97128.00;;;;8293537;28;20234;-73
2022/01/29 11:01:12;;;;;;;17.93;8.80;;;;;5.50;97121.00;;;;8296977;28;20339;-74
2022/01/29 11:05:17;;;;;;;16.53;8.37;;;;;5.50;97107.00;;;;8293786;28;20239;-75
2022/01/29 11:09:21;;;;;;;16.03;8.33;;;;;5.60;97113.00;;;;8296785;28;20723;-74
2022/01/29 11:13:26;;;;;;;14.47;8.03;;;;;5.70;97112.00;;;;8312002;28;20634;-73
2022/01/29 11:17:30;;;;;;;17.83;8.43;;;;;5.70;97113.00;;;;8304313;28;20248;-75
2022/01/29 11:21:36;;;;;;;12.50;7.60;;;;;5.80;97109.00;;;;8301055;28;20277;-72
2022/01/29 11:25:39;;;;;;;13.70;7.93;;;;;6.00;97105.00;;;;8300665;28;20686;-73
2022/01/29 11:29:57;;;;;;;14.70;7.40;;;;;6.20;97090.00;;;;8292885;28;20285;-73
2022/01/29 11:34:22;;;;;;;12.53;6.13;;;;;6.20;97109.00;;;;8299175;28;20257;-73
2022/01/29 11:38:30;;;;;;;10.17;6.43;;;;;6.20;97091.00;;;;8291522;28;20291;-74
2022/01/29 11:42:40;;;;;;;11.70;6.77;;;;;6.30;97094.00;;;;8283090;28;20583;-73
2022/01/29 11:46:52;;;;;;;11.07;6.53;;;;;6.40;97088.00;;;;8285939;28;20268;-73
2022/01/29 11:50:56;;;;;;;13.50;6.67;;;;;6.60;97083.00;;;;8303608;28;21074;-74
2022/01/29 11:55:04;;;;;;;11.63;6.80;;;;;6.90;97079.00;;;;8285856;28;20232;-74
2022/01/29 11:59:30;;;;;;;8.10;5.33;;;;;6.90;97055.00;;;;8298108;28;20285;-75
2022/01/29 12:03:53;;;;;;;9.87;6.23;;;;;7.00;97070.00;;;;8286447;28;20746;-75
2022/01/29 12:08:17;;;;;;;7.03;4.27;;;;;7.20;97051.00;;;;8289686;28;20231;-76
2022/01/29 12:12:24;;;;;;;10.93;6.30;;;;;7.20;97042.00;;;;8289937;28;20647;-74
2022/01/29 12:16:47;;;;;;;10.03;5.57;;;;;7.00;97042.00;;;;8305026;28;20308;-75
2022/01/29 12:20:50;;;;;;;7.37;4.10;;;;;7.00;97039.00;;;;8302742;28;20278;-74
2022/01/29 12:24:55;;;;;;;8.03;4.97;;;;;7.00;97030.00;;;;8293339;28;20232;-75
2022/01/29 12:28:59;;;;;;;7.53;4.60;;;;;7.10;97028.00;;;;8304012;28;20319;-76
2022/01/29 12:33:04;;;;;;;5.00;3.93;;;;;7.10;97014.00;;;;8314215;28;20237;-75
2022/01/29 12:37:13;;;;;;;6.53;4.07;;;;;7.00;97028.00;;;;8318347;28;20237;-75
2022/01/29 12:41:25;;;;;;;5.87;3.70;;;;;7.00;97025.00;;;;8299896;28;20236;-74
2022/01/29 12:45:31;;;;;;;5.73;3.10;;;;;7.00;97017.00;;;;8307307;28;20229;-75
2022/01/29 12:49:41;;;;;;;7.27;4.43;;;;;6.90;97003.00;;;;8306457;28;20708;-74
2022/01/29 12:53:56;;;;;;;5.03;3.53;;;;;6.80;96981.00;;;;8306146;28;20251;-74
2022/01/29 12:57:59;;;;;;;5.43;3.43;;;;;6.80;96989.00;;;;8303887;28;20921;-73
2022/01/29 13:02:05;;;;;;;2.60;2.40;;;;;6.80;96981.00;;;;8301822;28;20298;-75
2022/01/29 13:06:10;;;;;;;5.57;2.90;;;;;6.70;96991.00;;;;8294630;28;20242;-74
2022/01/29 13:10:13;;;;;;;12.13;6.57;;;;;6.70;96967.00;;;;8315852;28;20311;-75
2022/01/29 13:14:17;;;;;;;128.43;58.47;;;;;6.60;96967.00;;;;8301842;28;20225;-74
2022/01/29 13:18:22;;;;;;;10.03;6.90;;;;;6.60;96954.00;;;;8298363;28;20316;-74
2022/01/29 13:22:27;;;;;;;6.80;4.90;;;;;6.50;96952.00;;;;8300634;28;20221;-75
2022/01/29 13:26:31;;;;;;;3.77;3.37;;;;;6.50;96945.00;;;;8313649;28;21060;-75
2022/01/29 13:30:34;;;;;;;4.83;3.50;;;;;6.50;96935.00;;;;8313475;28;20229;-76
2022/01/29 13:34:41;;;;;;;4.20;3.70;;;;;6.60;96934.00;;;;8313191;28;20229;-75
2022/01/29 13:38:43;;;;;;;3.73;3.43;;;;;6.70;96924.00;;;;8311553;28;20937;-75
2022/01/29 13:42:55;;;;;;;7.97;7.17;;;;;6.70;96943.00;;;;8307043;28;20360;-75
2022/01/29 13:47:06;;;;;;;9.57;6.20;;;;;6.60;96927.00;;;;8308923;28;20291;-74
2022/01/29 13:51:12;;;;;;;4.77;4.23;;;;;6.60;96915.00;;;;8303113;28;20226;-76
2022/01/29 13:55:15;;;;;;;5.10;3.10;;;;;6.50;96919.00;;;;8308940;28;20752;-76
2022/01/29 13:59:26;;;;;;;7.57;5.20;;;;;6.60;96919.00;;;;8313510;28;20233;-76
2022/01/29 14:03:50;;;;;;;5.20;4.70;;;;;6.50;96913.00;;;;8312110;28;20233;-77
2022/01/29 14:08:14;;;;;;;6.57;5.97;;;;;6.50;96906.00;;;;8306848;28;20218;-76
2022/01/29 14:12:18;;;;;;;3.40;3.10;;;;;6.60;96909.00;;;;8301135;28;20272;-76
2022/01/29 14:16:21;;;;;;;4.53;2.80;;;;;6.70;96905.00;;;;8295580;28;20217;-75
2022/01/29 14:20:26;;;;;;;3.50;2.87;;;;;6.60;96902.00;;;;8307910;28;20225;-74
2022/01/29 14:24:31;;;;;;;2.53;2.33;;;;;6.50;96917.00;;;;8313814;28;20723;-73
2022/01/29 14:28:36;;;;;;;2.97;2.73;;;;;6.50;96914.00;;;;8293304;28;20641;-76
2022/01/29 14:32:41;;;;;;;3.10;2.63;;;;;6.40;96914.00;;;;8298149;28;20222;-75
2022/01/29 14:36:45;;;;;;;2.60;2.40;;;;;6.40;96892.00;;;;8315269;28;20683;-76
2022/01/29 14:40:51;;;;;;;3.13;2.60;;;;;6.40;96892.00;;;;8298860;28;20222;-75
2022/01/29 14:44:54;;;;;;;2.67;2.47;;;;;6.30;96896.00;;;;8317319;28;20287;-76
2022/01/29 14:48:58;;;;;;;5.60;2.87;;;;;6.30;96894.00;;;;8299994;28;20240;-75
2022/01/29 14:53:22;;;;;;;3.83;2.83;;;;;6.20;96901.00;;;;8295888;28;20587;-76
2022/01/29 14:57:26;;;;;;;3.23;2.23;;;;;6.20;96908.00;;;;8308039;28;20280;-76
2022/01/29 15:01:29;;;;;;;2.77;2.57;;;;;6.10;96901.00;;;;8317630;28;20567;-76
2022/01/29 15:05:32;;;;;;;4.40;3.13;;;;;6.00;96900.00;;;;8306596;28;20228;-75
2022/01/29 15:09:36;;;;;;;3.30;2.97;;;;;6.00;96905.00;;;;8309770;28;20231;-76
2022/01/29 15:13:40;;;;;;;5.87;3.10;;;;;6.00;96897.00;;;;8300530;28;20288;-76
2022/01/29 15:17:43;;;;;;;5.10;3.53;;;;;6.00;96895.00;;;;8296458;28;20301;-77
2022/01/29 15:22:09;;;;;;;4.03;3.10;;;;;6.00;96889.00;;;;8302535;28;20225;-76
2022/01/29 15:26:15;;;;;;;5.40;3.40;;;;;6.00;96883.00;;;;8299898;28;20233;-76
2022/01/29 15:30:20;;;;;;;6.00;3.93;;;;;5.90;96884.00;;;;8302138;28;20227;-76
2022/01/29 15:34:23;;;;;;;6.43;3.23;;;;;6.00;96871.00;;;;8300465;28;20295;-75
2022/01/29 15:38:27;;;;;;;4.63;3.30;;;;;6.00;96867.00;;;;8298747;28;20228;-75
2022/01/29 15:42:31;;;;;;;3.63;2.87;;;;;6.00;96857.00;;;;8303135;28;20236;-76
2022/01/29 15:46:35;;;;;;;4.63;2.90;;;;;6.00;96848.00;;;;8297131;28;20862;-76
2022/01/29 15:50:40;;;;;;;4.37;3.13;;;;;6.00;96853.00;;;;8294581;28;20284;-76
2022/01/29 15:55:04;;;;;;;4.23;2.93;;;;;6.10;96842.00;;;;8295040;28;20869;-76
2022/01/29 15:59:07;;;;;;;3.13;2.40;;;;;6.10;96843.00;;;;8300769;28;20877;-75
2022/01/29 16:03:12;;;;;;;2.97;2.50;;;;;6.10;96834.00;;;;8296300;28;20229;-74
2022/01/29 16:07:15;;;;;;;2.60;2.37;;;;;6.10;96826.00;;;;8301448;28;20236;-76
2022/01/29 16:11:18;;;;;;;3.83;2.87;;;;;6.10;96822.00;;;;8305627;28;20229;-74
2022/01/29 16:15:21;;;;;;;3.73;2.00;;;;;6.10;96836.00;;;;8299914;28;20221;-75
2022/01/29 16:19:25;;;;;;;6.70;4.60;;;;;6.20;96830.00;;;;8306808;28;20312;-72
2022/01/29 16:23:28;;;;;;;396.50;213.53;;;;;6.20;96835.00;;;;8305949;28;20321;-75
2022/01/29 16:27:31;;;;;;;31.57;19.43;;;;;6.20;96822.00;;;;8307169;28;20232;-76
2022/01/29 16:31:35;;;;;;;12.47;11.17;;;;;6.20;96822.00;;;;8306158;28;20683;-75
2022/01/29 16:35:40;;;;;;;86.13;56.43;;;;;6.20;96805.00;;;;8318304;28;20250;-75
2022/01/29 16:40:04;;;;;;;5.03;4.53;;;;;6.20;96803.00;;;;8302317;28;20240;-72
2022/01/29 16:44:07;;;;;;;3.27;2.97;;;;;6.10;96800.00;;;;8302401;28;20261;-72
2022/01/29 16:48:17;;;;;;;2.50;2.30;;;;;6.10;96785.00;;;;8306474;28;20243;-73
2022/01/29 16:52:21;;;;;;;4.17;2.60;;;;;6.20;96778.00;;;;8306603;28;20276;-74
2022/01/29 16:56:25;;;;;;;2.07;1.97;;;;;6.20;96779.00;;;;8303781;28;20235;-72
2022/01/29 17:00:30;;;;;;;2.60;2.40;;;;;6.20;96787.00;;;;8307941;28;20237;-73
2022/01/29 17:04:33;;;;;;;1.70;1.60;;;;;6.20;96799.00;;;;8295099;28;20271;-73
2022/01/29 17:08:38;;;;;;;2.60;1.63;;;;;6.30;96787.00;;;;8310286;28;20348;-73
2022/01/29 17:12:41;;;;;;;1.70;1.60;;;;;6.30;96767.00;;;;8310693;28;20272;-75
2022/01/29 17:16:46;;;;;;;1.10;1.10;;;;;6.40;96772.00;;;;8295606;28;20695;-72
2022/01/29 17:20:49;;;;;;;1.70;1.60;;;;;6.40;96772.00;;;;8300668;28;20311;-74
2022/01/29 17:24:53;;;;;;;2.37;1.40;;;;;6.50;96743.00;;;;8299392;28;20234;-73
2022/01/29 17:28:56;;;;;;;1.43;1.33;;;;;6.50;96751.00;;;;8303240;28;20709;-73
2022/01/29 17:32:59;;;;;;;1.80;1.70;;;;;6.60;96775.00;;;;8300774;28;20225;-74
2022/01/29 17:37:04;;;;;;;3.20;2.10;;;;;6.60;96771.00;;;;8301540;28;20309;-74
2022/01/29 17:41:08;;;;;;;1.57;1.47;;;;;6.70;96780.00;;;;8302486;28;20234;-73
2022/01/29 17:45:11;;;;;;;1.30;1.30;;;;;6.70;96782.00;;;;8297104;28;20225;-73
2022/01/29 17:49:14;;;;;;;1.43;1.40;;;;;6.80;96790.00;;;;8305405;28;20275;-73
2022/01/29 17:53:17;;;;;;;4.03;1.70;;;;;6.90;96773.00;;;;8298627;28;20225;-74
2022/01/29 17:57:22;;;;;;;1.40;1.30;;;;;6.90;96779.00;;;;8297168;28;20288;-73
2022/01/29 18:01:28;;;;;;;1.53;1.43;;;;;7.00;96786.00;;;;8296897;28;20240;-72
2022/01/29 18:05:31;;;;;;;1.43;1.33;;;;;7.00;96788.00;;;;8314040;28;20237;-74
2022/01/29 18:09:35;;;;;;;1.83;1.37;;;;;7.10;96786.00;;;;8316932;28;20237;-74
2022/01/29 18:13:41;;;;;;;1.40;1.30;;;;;7.10;96803.00;;;;8289144;28;20225;-72
2022/01/29 18:17:45;;;;;;;1.10;1.10;;;;;7.10;96808.00;;;;8299181;28;20222;-73
2022/01/29 18:21:48;;;;;;;1.23;1.23;;;;;7.10;96818.00;;;;8293211;28;20660;-73
2022/01/29 18:25:52;;;;;;;1.70;1.60;;;;;7.20;96825.00;;;;8295816;28;20226;-75
2022/01/29 18:29:58;;;;;;;1.50;1.40;;;;;7.20;96808.00;;;;8294561;28;20238;-75
2022/01/29 18:34:03;;;;;;;1.80;1.70;;;;;7.10;96808.00;;;;8295444;28;20225;-75
2022/01/29 18:38:07;;;;;;;1.63;1.53;;;;;7.10;96811.00;;;;8299511;28;20715;-74
2022/01/29 18:42:11;;;;;;;2.87;1.73;;;;;7.10;96802.00;;;;8295132;28;20957;-76
2022/01/29 18:46:16;;;;;;;1.30;1.30;;;;;7.10;96806.00;;;;8303214;28;20233;-75
2022/01/29 18:50:19;;;;;;;1.97;1.80;;;;;7.00;96788.00;;;;8293062;28;20895;-74
2022/01/29 18:54:22;;;;;;;2.03;1.93;;;;;7.00;96750.00;;;;8294769;28;20768;-77
2022/01/29 18:58:26;;;;;;;1.60;1.50;;;;;7.10;96748.00;;;;8296805;28;20905;-74
2022/01/29 19:02:30;;;;;;;2.00;1.90;;;;;7.10;96728.00;;;;8297315;28;20278;-74
2022/01/29 19:06:34;;;;;;;2.10;1.90;;;;;7.20;96770.00;;;;8289443;28;20277;-73
2022/01/29 19:10:42;;;;;;;1.53;1.50;;;;;7.10;96781.00;;;;8290730;28;20229;-73
2022/01/29 19:14:50;;;;;;;1.93;1.83;;;;;7.10;96765.00;;;;8298586;28;20225;-74
2022/01/29 19:18:55;;;;;;;1.80;1.70;;;;;7.00;96755.00;;;;8310029;28;20310;-73
2022/01/29 19:22:58;;;;;;;2.10;2.00;;;;;6.90;96746.00;;;;8306613;28;20669;-73
2022/01/29 19:27:03;;;;;;;2.17;1.97;;;;;6.80;96751.00;;;;8300403;28;20226;-75
2022/01/29 19:31:07;;;;;;;2.53;1.70;;;;;6.70;96736.00;;;;8301243;28;20230;-74
2022/01/29 19:35:12;;;;;;;2.30;2.10;;;;;6.70;96728.00;;;;8294846;28;20226;-71
2022/01/29 19:39:15;;;;;;;3.70;2.23;;;;;6.70;96728.00;;;;8299207;28;20335;-72
2022/01/29 19:43:18;;;;;;;2.43;2.23;;;;;6.70;96726.00;;;;8305762;28;20221;-72
2022/01/29 19:47:21;;;;;;;2.73;2.50;;;;;6.80;96723.00;;;;8309479;28;20633;-71
2022/01/29 19:51:26;;;;;;;2.77;2.40;;;;;6.80;96732.00;;;;8306590;28;20291;-70
2022/01/29 19:55:29;;;;;;;2.33;2.13;;;;;6.90;96748.00;;;;8309279;28;20243;-70
2022/01/29 19:59:33;;;;;;;2.27;2.13;;;;;7.00;96728.00;;;;8302759;28;20232;-71
2022/01/29 20:03:36;;;;;;;3.10;2.00;;;;;7.10;96732.00;;;;8315153;28;20294;-70
2022/01/29 20:07:41;;;;;;;2.30;2.10;;;;;7.20;96739.00;;;;8312784;28;20723;-72
2022/01/29 20:11:44;;;;;;;2.07;1.90;;;;;7.20;96735.00;;;;8304817;28;20741;-70
2022/01/29 20:15:47;;;;;;;2.20;2.00;;;;;7.30;96728.00;;;;8311824;28;20658;-74
2022/01/29 20:19:50;;;;;;;2.23;1.83;;;;;7.30;96731.00;;;;8303215;28;20240;-72
2022/01/29 20:23:55;;;;;;;1.93;1.80;;;;;7.20;96696.00;;;;8305281;28;20319;-73
2022/01/29 20:27:58;;;;;;;1.80;1.70;;;;;7.10;96707.00;;;;8308228;28;20613;-72
2022/01/29 20:32:01;;;;;;;1.43;1.40;;;;;7.00;96717.00;;;;8312396;28;20290;-72
2022/01/29 20:36:05;;;;;;;1.83;1.50;;;;;6.90;96690.00;;;;8304199;28;20279;-75
2022/01/29 20:40:11;;;;;;;1.83;1.40;;;;;6.90;96706.00;;;;8299610;28;20291;-72
2022/01/29 20:44:14;;;;;;;1.53;1.43;;;;;6.80;96720.00;;;;8313234;28;20240;-72
2022/01/29 20:48:17;;;;;;;1.10;1.10;;;;;6.80;96728.00;;;;8308934;28;20704;-74